Time;durP1;ratioP1;P1;durP2;ratioP2;P2;SDS_P1;SDS_P2;PMS_P1;PMS_P2;Temp;Humidity;BMP_temperature;BMP_pressure;BME280_temperature;BME280_humidity;BME280_pressure;Samples;Min_cycle;Max_cycle;Signal;HPM_P1;HPM_P2
2023/05/11 00:01:35;;;;;;;33.65;20.83;;;12.60;99.90;;;;;;4926388;29;37849;-80
2023/05/11 00:04:01;;;;;;;26.63;18.20;;;12.60;99.90;;;;;;4922867;29;37825;-81
2023/05/11 00:06:31;;;;;;;32.15;20.40;;;12.60;99.90;;;;;;4930016;29;47132;-80
2023/05/11 00:08:57;;;;;;;30.73;19.65;;;12.60;99.90;;;;;;4923120;28;38166;-81
2023/05/11 00:11:23;;;;;;;30.55;19.75;;;12.50;99.90;;;;;;4957960;28;36534;-80
2023/05/11 00:13:49;;;;;;;33.20;21.08;;;12.60;99.90;;;;;;4916432;29;37532;-81
2023/05/11 00:16:25;;;;;;;29.23;19.85;;;12.60;99.90;;;;;;4909425;29;38030;-81
2023/05/11 00:18:51;;;;;;;36.28;22.90;;;12.60;99.90;;;;;;4927364;29;38698;-81
2023/05/11 00:21:17;;;;;;;30.70;20.52;;;12.60;99.90;;;;;;4916783;28;38352;-80
2023/05/11 00:23:45;;;;;;;32.42;22.00;;;12.60;99.90;;;;;;4924925;28;37893;-81
2023/05/11 00:26:11;;;;;;;30.80;20.02;;;12.60;99.90;;;;;;4957077;28;37635;-82
2023/05/11 00:28:48;;;;;;;28.15;19.98;;;12.60;99.90;;;;;;4925509;28;38922;-81
2023/05/11 00:31:15;;;;;;;28.70;19.75;;;12.60;99.90;;;;;;4927826;28;38023;-81
2023/05/11 00:33:41;;;;;;;29.40;20.10;;;12.60;99.90;;;;;;4926885;28;38402;-81
2023/05/11 00:36:07;;;;;;;30.50;19.88;;;12.60;99.90;;;;;;4958995;28;37526;-80
2023/05/11 00:38:35;;;;;;;32.50;20.35;;;12.60;99.90;;;;;;4928626;29;39703;-80
2023/05/11 00:41:02;;;;;;;29.15;19.85;;;12.60;99.90;;;;;;4930131;28;38292;-81
2023/05/11 00:43:28;;;;;;;30.85;20.27;;;12.60;99.90;;;;;;4927299;28;49005;-81
2023/05/11 00:45:54;;;;;;;32.58;21.10;;;12.60;99.90;;;;;;4927037;28;38690;-81
2023/05/11 00:48:21;;;;;;;30.80;20.35;;;12.60;99.90;;;;;;4927996;28;37926;-81
2023/05/11 00:50:48;;;;;;;32.67;19.83;;;12.60;99.90;;;;;;4921987;28;38041;-81
2023/05/11 00:53:14;;;;;;;30.00;20.58;;;12.60;99.90;;;;;;4925883;29;38285;-81
2023/05/11 00:55:40;;;;;;;29.38;20.17;;;12.60;99.90;;;;;;4929277;28;39273;-81
2023/05/11 00:58:07;;;;;;;35.58;22.45;;;12.60;99.90;;;;;;4925238;28;37602;-81
2023/05/11 01:03:13;;;;;;;29.98;20.33;;;12.60;99.90;;;;;;5509176;23;20051;-82
2023/05/11 01:06:00;;;;;;;30.65;19.73;;;12.70;99.90;;;;;;4918814;29;38466;-82
2023/05/11 01:08:51;;;;;;;37.75;20.30;;;12.70;99.90;;;;;;4916705;29;38487;-82
2023/05/11 01:11:24;;;;;;;30.42;20.73;;;12.70;99.90;;;;;;4909202;29;37447;-82
2023/05/11 01:13:58;;;;;;;32.75;20.95;;;12.70;99.90;;;;;;4920567;29;39452;-83
2023/05/11 01:16:26;;;;;;;29.38;20.30;;;12.70;99.90;;;;;;4938195;29;40163;-83
2023/05/11 01:19:43;;;;;;;31.48;19.80;;;12.70;99.90;;;;;;4909115;29;36849;-84
2023/05/11 01:22:50;;;;;;;29.05;20.38;;;12.60;99.90;;;;;;4871695;29;47867;-84
2023/05/11 01:25:35;;;;;;;30.05;20.75;;;12.60;99.90;;;;;;5235853;23;38837;-81
2023/05/11 01:28:38;;;;;;;33.75;20.77;;;12.60;99.90;;;;;;4905038;29;37934;-82
2023/05/11 01:31:14;;;;;;;31.15;20.67;;;12.60;99.90;;;;;;4910713;29;48280;-82
2023/05/11 01:57:16;;;;;;;29.05;19.08;;;12.60;99.90;;;;;;5873104;23;20052;-83
2023/05/11 02:18:08;;;;;;;37.13;21.17;;;12.60;99.90;;;;;;5595372;23;20062;-82
2023/05/11 02:21:07;;;;;;;32.13;21.90;;;12.60;99.90;;;;;;4927366;29;36820;-81
2023/05/11 02:23:53;;;;;;;37.55;21.77;;;12.60;99.90;;;;;;4923115;29;48506;-82
2023/05/11 02:26:29;;;;;;;37.05;21.83;;;12.60;99.90;;;;;;4922769;29;37121;-82
2023/05/11 02:31:41;;;;;;;39.90;22.85;;;12.70;99.90;;;;;;5273294;23;20050;-81
2023/05/11 02:34:19;;;;;;;35.42;21.70;;;12.60;99.90;;;;;;4904704;29;39245;-82
2023/05/11 02:36:57;;;;;;;39.63;22.00;;;12.60;99.90;;;;;;4908409;29;39151;-82
2023/05/11 02:39:58;;;;;;;30.58;19.63;;;12.60;99.90;;;;;;4901519;29;38265;-82
2023/05/11 02:42:29;;;;;;;29.45;18.92;;;12.60;99.90;;;;;;4903844;29;39750;-83
2023/05/11 02:45:01;;;;;;;34.78;20.95;;;12.60;99.90;;;;;;5075053;23;38445;-81
2023/05/11 02:47:32;;;;;;;34.03;21.70;;;12.60;99.90;;;;;;4911832;29;37615;-81
2023/05/11 02:50:02;;;;;;;32.65;21.05;;;12.60;99.90;;;;;;5013903;23;38773;-81
2023/05/11 02:55:07;;;;;;;41.13;22.00;;;12.50;99.90;;;;;;5921559;23;20022;-80
2023/05/11 02:57:34;;;;;;;39.00;22.95;;;12.60;99.90;;;;;;4915544;29;37404;-83
2023/05/11 03:00:13;;;;;;;37.17;22.67;;;12.60;99.90;;;;;;4911423;29;38697;-82
2023/05/11 03:02:39;;;;;;;36.22;23.00;;;12.50;99.90;;;;;;4908566;29;39702;-82
2023/05/11 03:08:50;;;;;;;48.27;26.20;;;12.50;99.90;;;;;;4923103;29;50726;-82
2023/05/11 03:11:25;;;;;;;50.30;25.83;;;12.60;99.90;;;;;;4906993;29;38759;-81
2023/05/11 03:14:02;;;;;;;42.75;24.50;;;12.50;99.90;;;;;;4906828;29;39416;-81
2023/05/11 03:16:36;;;;;;;45.85;24.63;;;12.50;99.90;;;;;;4894252;28;49949;-81
2023/05/11 03:19:05;;;;;;;40.00;24.23;;;12.50;99.90;;;;;;5372975;23;38903;-81
2023/05/11 03:22:09;;;;;;;40.55;23.50;;;12.40;99.90;;;;;;4926585;29;38939;-81
2023/05/11 03:24:43;;;;;;;40.15;22.92;;;12.40;99.90;;;;;;4924947;29;48582;-81
2023/05/11 03:27:27;;;;;;;55.63;25.90;;;12.30;99.90;;;;;;4927256;28;38326;-81
2023/05/11 03:30:02;;;;;;;42.20;23.80;;;12.30;99.90;;;;;;4921654;29;36980;-82
2023/05/11 03:32:30;;;;;;;44.60;23.35;;;12.30;99.90;;;;;;4931924;28;38698;-82
2023/05/11 03:34:56;;;;;;;36.75;22.30;;;12.30;99.90;;;;;;4941148;29;38827;-81
2023/05/11 03:37:32;;;;;;;46.03;24.83;;;12.20;99.90;;;;;;4940203;29;39369;-83
2023/05/11 03:40:00;;;;;;;40.22;23.25;;;12.20;99.90;;;;;;4941072;29;38067;-82
2023/05/11 03:42:36;;;;;;;44.53;24.50;;;12.10;99.90;;;;;;4924788;29;39333;-81
2023/05/11 03:45:13;;;;;;;43.60;24.75;;;12.10;99.90;;;;;;4914651;29;39173;-82
2023/05/11 03:47:42;;;;;;;41.30;25.05;;;12.10;99.90;;;;;;4934222;28;50197;-82
2023/05/11 03:50:10;;;;;;;44.00;24.50;;;12.10;99.90;;;;;;4938455;28;38851;-81
2023/05/11 03:52:39;;;;;;;49.90;28.08;;;12.20;99.90;;;;;;4931763;29;39739;-82
2023/05/11 03:55:18;;;;;;;47.85;25.90;;;12.20;99.90;;;;;;4929218;29;37629;-81
2023/05/11 03:57:51;;;;;;;49.53;27.20;;;12.20;99.90;;;;;;4927351;29;40183;-81
2023/05/11 04:00:26;;;;;;;48.72;25.92;;;12.30;99.90;;;;;;4940883;29;38299;-80
2023/05/11 04:02:53;;;;;;;45.13;24.45;;;12.30;99.90;;;;;;4921272;29;49945;-81
2023/05/11 04:05:37;;;;;;;46.85;25.60;;;12.30;99.90;;;;;;4921048;29;40010;-82
2023/05/11 04:08:07;;;;;;;44.80;24.40;;;12.30;99.90;;;;;;4936451;28;40465;-81
2023/05/11 04:10:33;;;;;;;40.10;23.70;;;12.30;99.90;;;;;;4923022;29;38950;-81
2023/05/11 04:12:59;;;;;;;42.50;24.42;;;12.40;99.90;;;;;;4937275;28;38705;-81
2023/05/11 04:15:47;;;;;;;48.00;25.50;;;12.40;99.90;;;;;;4935552;28;38279;-82
2023/05/11 04:18:23;;;;;;;47.25;26.13;;;12.40;99.90;;;;;;4941507;28;38404;-81
2023/05/11 04:20:49;;;;;;;49.92;25.42;;;12.40;99.90;;;;;;4933947;29;37780;-82
2023/05/11 04:23:17;;;;;;;44.88;25.50;;;12.40;99.90;;;;;;4939063;28;39416;-81
2023/05/11 04:25:44;;;;;;;51.92;25.85;;;12.50;99.90;;;;;;4926527;29;38416;-81
2023/05/11 04:28:26;;;;;;;42.60;24.17;;;12.50;99.90;;;;;;4916618;28;37024;-81
2023/05/11 04:31:00;;;;;;;53.67;27.40;;;12.50;99.90;;;;;;4938670;29;39060;-81
2023/05/11 04:33:26;;;;;;;50.42;24.40;;;12.50;99.90;;;;;;4928381;28;39222;-81
2023/05/11 04:35:59;;;;;;;46.53;25.20;;;12.60;99.90;;;;;;4941461;28;39845;-81
2023/05/11 04:38:37;;;;;;;42.63;23.38;;;12.60;99.90;;;;;;4909548;28;37288;-81
2023/05/11 04:41:07;;;;;;;45.83;24.83;;;12.50;99.90;;;;;;4908219;28;37711;-82
2023/05/11 04:43:41;;;;;;;43.55;23.52;;;12.50;99.90;;;;;;4919859;28;39455;-81
2023/05/11 04:46:18;;;;;;;38.58;23.23;;;12.50;99.90;;;;;;4919670;29;39409;-80
2023/05/11 04:48:46;;;;;;;42.90;23.35;;;12.50;99.90;;;;;;4935486;29;39575;-83
2023/05/11 04:51:51;;;;;;;40.80;23.00;;;12.60;99.90;;;;;;4930717;28;38072;-82
2023/05/11 04:54:40;;;;;;;35.50;20.48;;;12.60;99.90;;;;;;4931255;28;39240;-82
2023/05/11 04:57:33;;;;;;;39.17;21.42;;;12.70;99.90;;;;;;4896253;29;40005;-83
2023/05/11 05:00:18;;;;;;;35.10;21.42;;;12.60;99.90;;;;;;4920900;29;38811;-83
2023/05/11 05:03:04;;;;;;;38.50;20.48;;;12.60;99.90;;;;;;4908707;28;48968;-84
2023/05/11 05:14:07;;;;;;;35.05;20.83;;;12.60;99.90;;;;;;5687330;23;20047;-83
2023/05/11 05:29:36;;;;;;;36.67;20.92;;;12.60;99.90;;;;;;5970169;23;20038;-82
2023/05/11 05:32:28;;;;;;;40.83;20.40;;;12.60;99.90;;;;;;4916670;29;38478;-83
2023/05/11 05:35:02;;;;;;;42.33;20.20;;;12.60;99.90;;;;;;4924693;28;36855;-83
2023/05/11 05:38:03;;;;;;;38.53;20.08;;;12.70;99.90;;;;;;4920107;29;39246;-83
2023/05/11 05:40:38;;;;;;;41.05;19.75;;;12.70;99.90;;;;;;4919403;29;48760;-83
2023/05/11 05:43:52;;;;;;;40.75;20.40;;;12.70;99.90;;;;;;4917649;29;39527;-83
2023/05/11 05:46:25;;;;;;;38.83;19.88;;;12.70;99.90;;;;;;4919132;29;38194;-83
2023/05/11 05:49:35;;;;;;;41.60;21.58;;;12.80;99.90;;;;;;4914464;29;40110;-83
2023/05/11 05:52:02;;;;;;;38.10;20.90;;;12.80;99.90;;;;;;4922508;29;48977;-81
2023/05/11 05:54:31;;;;;;;41.15;19.63;;;12.80;99.90;;;;;;4915491;29;38287;-83
2023/05/11 05:56:57;;;;;;;38.60;21.13;;;12.90;99.90;;;;;;4923326;29;36068;-83
2023/05/11 05:59:23;;;;;;;33.15;18.95;;;13.00;99.90;;;;;;4909245;29;40228;-81
2023/05/11 06:01:52;;;;;;;36.25;20.70;;;13.00;99.90;;;;;;4911283;29;39995;-82
2023/05/11 06:04:18;;;;;;;37.22;19.90;;;13.00;99.90;;;;;;4921210;29;38902;-82
2023/05/11 06:06:46;;;;;;;34.92;19.15;;;13.10;99.90;;;;;;4913707;29;37264;-81
2023/05/11 06:09:13;;;;;;;32.92;19.55;;;13.10;99.90;;;;;;4913119;29;39468;-81
2023/05/11 06:11:39;;;;;;;35.03;18.25;;;13.20;99.90;;;;;;4913701;29;37779;-81
2023/05/11 06:14:06;;;;;;;35.28;18.90;;;13.30;99.90;;;;;;4914847;29;37586;-83
2023/05/11 06:16:33;;;;;;;36.20;19.67;;;13.40;99.90;;;;;;4917409;29;37322;-82
2023/05/11 06:19:08;;;;;;;38.90;20.25;;;13.40;99.90;;;;;;4915232;29;38906;-81
2023/05/11 06:21:45;;;;;;;36.35;19.52;;;13.40;99.90;;;;;;4915804;29;49840;-81
2023/05/11 06:24:11;;;;;;;35.75;19.92;;;13.50;99.90;;;;;;4912448;29;38684;-82
2023/05/11 06:26:38;;;;;;;36.30;21.48;;;13.50;99.90;;;;;;4914993;29;38725;-83
2023/05/11 06:29:04;;;;;;;36.70;20.15;;;13.40;99.90;;;;;;4906266;29;38964;-80
2023/05/11 06:31:30;;;;;;;30.88;18.92;;;13.60;99.90;;;;;;4898263;29;38548;-80
2023/05/11 06:33:57;;;;;;;36.25;18.88;;;13.80;99.90;;;;;;4902007;29;38134;-80
2023/05/11 06:36:23;;;;;;;33.85;19.10;;;13.80;99.90;;;;;;4898714;29;36650;-80
2023/05/11 06:38:50;;;;;;;33.05;18.88;;;14.00;99.90;;;;;;4893025;29;39344;-80
2023/05/11 06:41:16;;;;;;;33.65;20.23;;;14.00;99.90;;;;;;4901160;29;37550;-80
2023/05/11 06:43:43;;;;;;;36.60;20.15;;;14.00;99.90;;;;;;4893431;29;37402;-80
2023/05/11 06:46:09;;;;;;;41.15;20.13;;;14.10;99.90;;;;;;4890093;29;37572;-80
2023/05/11 06:48:35;;;;;;;35.25;19.10;;;14.20;99.90;;;;;;4894219;29;37689;-79
2023/05/11 06:51:01;;;;;;;31.52;18.40;;;14.30;99.90;;;;;;4886766;29;37482;-79
2023/05/11 06:53:27;;;;;;;35.97;19.00;;;14.20;99.90;;;;;;4892660;29;48401;-80
2023/05/11 06:55:55;;;;;;;26.40;16.55;;;14.30;99.90;;;;;;4883953;29;36974;-79
2023/05/11 06:58:24;;;;;;;33.40;18.52;;;14.30;99.90;;;;;;4890169;29;39279;-79
2023/05/11 07:00:50;;;;;;;34.83;19.20;;;14.30;99.90;;;;;;4891408;29;38391;-79
2023/05/11 07:03:19;;;;;;;37.15;20.45;;;14.20;99.90;;;;;;4888635;29;40289;-80
2023/05/11 07:05:45;;;;;;;39.00;19.23;;;14.20;99.90;;;;;;4886971;29;36029;-79
2023/05/11 07:08:11;;;;;;;38.35;18.45;;;14.10;99.90;;;;;;4886564;29;37739;-79
2023/05/11 07:10:37;;;;;;;36.80;19.52;;;14.00;99.90;;;;;;4887494;29;39321;-79
2023/05/11 07:13:04;;;;;;;44.47;22.67;;;14.00;99.90;;;;;;4886997;29;39088;-79
2023/05/11 07:15:30;;;;;;;38.45;19.77;;;14.10;99.90;;;;;;4903019;29;39911;-79
2023/05/11 07:17:56;;;;;;;40.58;22.27;;;14.20;99.90;;;;;;4893289;29;38899;-80
2023/05/11 07:20:22;;;;;;;38.83;21.83;;;14.20;99.90;;;;;;4887555;29;38371;-79
2023/05/11 07:22:48;;;;;;;43.42;20.98;;;14.30;99.90;;;;;;4894225;29;37975;-80
2023/05/11 07:25:15;;;;;;;32.28;19.55;;;14.20;99.90;;;;;;4892064;29;37020;-79
2023/05/11 07:27:41;;;;;;;29.52;18.77;;;14.30;99.90;;;;;;4894924;29;39250;-81
2023/05/11 07:30:08;;;;;;;32.90;19.38;;;14.30;99.90;;;;;;4896425;29;38467;-80
2023/05/11 07:32:34;;;;;;;30.42;18.95;;;14.30;99.90;;;;;;4910502;29;37041;-80
2023/05/11 07:35:00;;;;;;;31.27;18.98;;;14.30;99.90;;;;;;4895921;29;37980;-81
2023/05/11 07:37:26;;;;;;;33.83;20.83;;;14.20;99.90;;;;;;4894037;29;37376;-79
2023/05/11 07:39:53;;;;;;;35.60;21.48;;;14.40;99.90;;;;;;4897611;29;37244;-80
2023/05/11 07:42:19;;;;;;;38.08;21.70;;;14.50;99.90;;;;;;4896161;29;36634;-80
2023/05/11 07:44:45;;;;;;;35.15;20.50;;;14.40;99.90;;;;;;4898624;29;36394;-80
2023/05/11 07:47:12;;;;;;;47.92;22.90;;;14.30;99.90;;;;;;4898922;29;40659;-80
2023/05/11 07:49:38;;;;;;;39.20;22.33;;;14.10;99.90;;;;;;4893435;29;39426;-81
2023/05/11 07:52:05;;;;;;;44.83;23.02;;;14.00;99.90;;;;;;4891183;29;38555;-79
2023/05/11 07:54:31;;;;;;;36.90;23.20;;;14.00;99.90;;;;;;4899538;29;36953;-80
2023/05/11 07:56:57;;;;;;;35.22;22.08;;;14.30;99.90;;;;;;4904983;29;39749;-81
2023/05/11 07:59:23;;;;;;;35.45;23.48;;;14.60;99.90;;;;;;4906133;29;39453;-80
2023/05/11 08:01:49;;;;;;;38.03;22.08;;;14.60;99.90;;;;;;4907467;29;38512;-81
2023/05/11 08:04:16;;;;;;;34.70;21.33;;;14.60;99.90;;;;;;4905635;29;38978;-80
2023/05/11 08:06:42;;;;;;;37.70;22.90;;;14.90;99.90;;;;;;4897582;29;37323;-80
2023/05/11 08:09:10;;;;;;;36.08;23.65;;;15.20;99.90;;;;;;4903094;29;39009;-80
2023/05/11 08:11:36;;;;;;;37.67;23.42;;;15.40;99.90;;;;;;4900142;29;37055;-80
2023/05/11 08:14:02;;;;;;;41.05;24.77;;;15.40;99.90;;;;;;4901352;29;36943;-79
2023/05/11 08:16:28;;;;;;;36.30;22.83;;;15.00;99.90;;;;;;4895380;29;37605;-79
2023/05/11 08:18:54;;;;;;;42.35;24.95;;;15.00;99.90;;;;;;4901329;29;40091;-80
2023/05/11 08:21:22;;;;;;;35.45;22.88;;;15.10;99.90;;;;;;4895392;29;38495;-80
2023/05/11 08:23:48;;;;;;;37.10;24.27;;;15.00;99.90;;;;;;4896911;29;38730;-80
2023/05/11 08:26:14;;;;;;;35.80;22.65;;;14.70;99.90;;;;;;4897945;29;38934;-79
2023/05/11 08:28:41;;;;;;;37.65;22.20;;;14.50;99.90;;;;;;4901142;29;37319;-80
2023/05/11 08:31:09;;;;;;;39.17;22.42;;;14.50;99.90;;;;;;4899331;29;38488;-80
2023/05/11 08:33:35;;;;;;;43.50;22.27;;;14.50;99.90;;;;;;4900582;29;37178;-80
2023/05/11 08:36:03;;;;;;;32.13;21.55;;;14.60;99.90;;;;;;4900796;29;38659;-80
2023/05/11 08:38:29;;;;;;;37.72;23.45;;;14.90;99.90;;;;;;4901173;29;49432;-80
2023/05/11 08:40:55;;;;;;;34.42;22.52;;;14.90;99.90;;;;;;4894055;29;38800;-81
2023/05/11 08:43:23;;;;;;;37.72;23.17;;;14.70;99.90;;;;;;4911037;29;36140;-80
2023/05/11 08:45:55;;;;;;;36.22;21.25;;;14.60;99.90;;;;;;4901996;29;38999;-80
2023/05/11 08:48:34;;;;;;;41.03;23.07;;;14.60;99.90;;;;;;4908374;29;37278;-80
2023/05/11 08:51:03;;;;;;;36.33;21.30;;;14.90;99.90;;;;;;4902883;29;37915;-80
2023/05/11 08:53:29;;;;;;;30.15;19.55;;;15.30;99.90;;;;;;4901337;29;47106;-79
2023/05/11 08:55:59;;;;;;;33.80;19.15;;;15.70;99.90;;;;;;4890451;29;37842;-80
2023/05/11 08:58:26;;;;;;;34.70;19.25;;;16.30;99.90;;;;;;4910887;29;37263;-80
2023/05/11 09:00:53;;;;;;;32.20;19.33;;;16.30;99.90;;;;;;4905495;29;40532;-80
2023/05/11 09:03:20;;;;;;;28.38;19.33;;;16.40;99.90;;;;;;4901791;29;35886;-79
2023/05/11 09:05:47;;;;;;;26.15;17.30;;;17.00;99.90;;;;;;4912120;29;39305;-80
2023/05/11 09:08:16;;;;;;;31.30;17.88;;;17.00;99.90;;;;;;4903402;29;39540;-79
2023/05/11 09:10:48;;;;;;;27.15;15.63;;;17.50;99.90;;;;;;4896621;29;38347;-81
2023/05/11 09:13:15;;;;;;;25.52;16.77;;;17.50;99.90;;;;;;4906296;29;36519;-80
2023/05/11 09:15:41;;;;;;;24.63;14.88;;;17.60;99.90;;;;;;4908817;29;40357;-81
2023/05/11 09:18:15;;;;;;;26.60;14.50;;;17.60;99.90;;;;;;4911455;29;37045;-81
2023/05/11 09:20:43;;;;;;;24.55;15.50;;;18.20;99.90;;;;;;4906088;29;37354;-80
2023/05/11 09:23:10;;;;;;;20.90;14.40;;;18.00;99.90;;;;;;4903197;29;37962;-80
2023/05/11 09:25:38;;;;;;;20.73;14.30;;;17.90;99.90;;;;;;4908660;29;40559;-80
2023/05/11 09:28:25;;;;;;;25.67;15.02;;;17.60;99.90;;;;;;4917376;29;37456;-80
2023/05/11 09:30:52;;;;;;;26.48;17.15;;;17.80;99.90;;;;;;4916160;29;37312;-80
2023/05/11 09:33:23;;;;;;;23.42;15.25;;;17.20;99.90;;;;;;4913225;29;37627;-80
2023/05/11 14:20:06;;;;;;;3.78;2.15;;;17.00;99.90;;;;;;5825315;23;20029;-79
2023/05/11 14:28:34;;;;;;;10.75;5.82;;;16.80;99.90;;;;;;5193123;23;20048;-79
2023/05/11 14:31:25;;;;;;;9.43;5.78;;;16.80;99.90;;;;;;4895520;29;40630;-79
2023/05/11 14:33:51;;;;;;;11.25;6.15;;;16.80;99.90;;;;;;4894894;29;48527;-79
2023/05/11 14:36:22;;;;;;;7.38;5.22;;;16.70;99.90;;;;;;4903617;29;40422;-79
2023/05/11 14:39:18;;;;;;;8.93;4.30;;;16.50;99.90;;;;;;4894670;29;37300;-80
2023/05/11 14:47:12;;;;;;;9.13;6.07;;;16.60;99.90;;;;;;5018308;23;20049;-80
2023/05/11 14:49:44;;;;;;;9.75;4.95;;;16.60;99.90;;;;;;4904077;29;37417;-80
2023/05/11 14:52:20;;;;;;;9.68;5.38;;;16.70;99.90;;;;;;4902442;29;39151;-80
2023/05/11 14:54:50;;;;;;;10.52;5.95;;;16.70;99.90;;;;;;4898090;29;38946;-80
2023/05/11 14:57:49;;;;;;;12.52;5.82;;;16.70;99.90;;;;;;4903512;29;39380;-78
2023/05/11 15:00:16;;;;;;;10.57;4.80;;;16.70;99.90;;;;;;4899653;29;37179;-78
2023/05/11 15:02:57;;;;;;;7.72;4.80;;;16.60;99.90;;;;;;4899633;29;38973;-78
2023/05/11 15:05:23;;;;;;;5.87;3.53;;;16.60;99.90;;;;;;4956588;23;37148;-79
2023/05/11 15:07:51;;;;;;;6.60;4.00;;;16.70;99.90;;;;;;4897323;29;39525;-80
2023/05/11 15:10:27;;;;;;;7.75;3.90;;;16.70;99.90;;;;;;4902457;29;38777;-80
2023/05/11 15:12:53;;;;;;;6.10;4.07;;;16.80;99.90;;;;;;4903468;29;38628;-79
2023/05/11 15:15:30;;;;;;;4.78;3.40;;;16.90;99.90;;;;;;4911530;29;38351;-79
2023/05/11 15:17:56;;;;;;;5.72;3.10;;;17.00;99.90;;;;;;4902666;29;39542;-80
2023/05/11 15:20:28;;;;;;;6.25;2.70;;;17.20;99.90;;;;;;4902864;29;38558;-79
2023/05/11 15:23:02;;;;;;;;;;;17.30;99.90;;;;;;4904434;29;40154;-79
2023/05/11 15:25:29;;;;;;;4.25;2.63;;;17.20;99.90;;;;;;4896592;29;50410;-79
2023/05/11 15:27:55;;;;;;;6.32;3.65;;;17.10;99.90;;;;;;4900409;29;38197;-79
2023/05/11 15:30:21;;;;;;;8.68;3.58;;;17.10;99.90;;;;;;4896805;29;37059;-80
2023/05/11 15:32:59;;;;;;;8.52;3.00;;;17.30;99.90;;;;;;4899357;29;37421;-79
2023/05/11 15:35:33;;;;;;;6.93;3.47;;;17.30;99.90;;;;;;4897372;29;38178;-80
2023/05/11 15:37:59;;;;;;;5.47;3.53;;;17.40;99.90;;;;;;4902294;29;39539;-80
2023/05/11 15:40:28;;;;;;;6.28;3.10;;;17.30;99.90;;;;;;4895151;29;38723;-79
2023/05/11 15:42:59;;;;;;;4.53;2.10;;;17.10;99.90;;;;;;4890476;29;39004;-80
2023/05/11 15:45:25;;;;;;;5.78;2.95;;;16.90;99.90;;;;;;4903757;29;37722;-79
2023/05/11 15:47:57;;;;;;;6.15;3.30;;;16.90;99.90;;;;;;4898647;29;39393;-79
2023/05/11 15:50:40;;;;;;;7.55;3.10;;;17.10;99.90;;;;;;4900608;29;36154;-80
2023/05/11 15:53:15;;;;;;;5.28;2.70;;;17.30;99.90;;;;;;4894177;29;40232;-79
2023/05/11 15:55:44;;;;;;;7.50;3.17;;;17.30;99.90;;;;;;4894859;29;38268;-80
2023/05/11 15:58:12;;;;;;;4.60;2.03;;;17.50;99.90;;;;;;4898813;29;38467;-79
2023/05/11 16:00:58;;;;;;;15.15;5.00;;;17.40;99.90;;;;;;4916538;29;37653;-80
2023/05/11 16:03:25;;;;;;;5.38;3.70;;;17.40;99.90;;;;;;4888587;29;40215;-80
2023/05/11 16:08:29;;;;;;;7.18;5.10;;;17.40;99.90;;;;;;4990428;23;20050;-80
2023/05/11 16:10:55;;;;;;;7.03;4.75;;;17.40;99.90;;;;;;5591297;23;37401;-79
2023/05/11 16:13:23;;;;;;;7.90;4.97;;;17.20;99.90;;;;;;4879890;29;38811;-79
2023/05/11 16:15:51;;;;;;;6.22;3.88;;;17.10;99.90;;;;;;4874381;29;40059;-79
2023/05/11 16:18:18;;;;;;;4.53;4.07;;;17.00;99.90;;;;;;4891348;29;37910;-79
2023/05/11 16:20:45;;;;;;;3.75;2.90;;;16.90;99.90;;;;;;4880914;29;36152;-79
2023/05/11 16:23:11;;;;;;;5.53;3.22;;;17.00;99.90;;;;;;4865251;29;39568;-80
2023/05/11 16:25:52;;;;;;;4.95;3.17;;;17.00;99.90;;;;;;4879290;29;37544;-79
2023/05/11 16:28:18;;;;;;;8.75;2.75;;;16.90;99.90;;;;;;4886445;29;37981;-79
2023/05/11 16:30:51;;;;;;;3.28;2.55;;;16.90;99.90;;;;;;4894504;29;37123;-80
2023/05/11 16:33:18;;;;;;;3.72;2.65;;;16.90;99.90;;;;;;4872475;29;40259;-79
2023/05/11 16:36:00;;;;;;;4.20;2.90;;;17.00;99.90;;;;;;4897515;29;39457;-80
2023/05/11 16:38:27;;;;;;;4.20;2.80;;;17.10;99.90;;;;;;4885264;29;37138;-80
2023/05/11 16:41:10;;;;;;;3.55;2.80;;;17.10;99.90;;;;;;4881637;29;35862;-81
2023/05/11 16:43:44;;;;;;;5.15;3.15;;;17.00;99.90;;;;;;4891959;29;48517;-80
2023/05/11 16:46:11;;;;;;;4.70;3.38;;;17.00;99.90;;;;;;4879952;29;38884;-80
2023/05/11 16:48:38;;;;;;;4.63;2.95;;;16.90;99.90;;;;;;4870500;29;40803;-80
2023/05/11 16:51:06;;;;;;;5.68;3.10;;;17.00;99.90;;;;;;4879008;29;38794;-81
2023/05/11 17:07:00;;;;;;;6.05;3.17;;;16.80;99.90;;;;;;5573534;23;19918;-81
2023/05/11 17:10:00;;;;;;;3.70;2.67;;;16.70;99.90;;;;;;4900426;29;38529;-80
2023/05/11 17:12:36;;;;;;;4.78;2.40;;;16.60;99.90;;;;;;4851311;29;37234;-79
2023/05/11 17:15:05;;;;;;;3.53;2.40;;;16.60;99.90;;;;;;4901577;29;39364;-80
2023/05/11 17:18:17;;;;;;;5.68;2.38;;;16.50;99.90;;;;;;4895494;29;48799;-79
2023/05/11 17:20:56;;;;;;;4.07;2.47;;;16.40;99.90;;;;;;4898922;29;48988;-80
2023/05/11 17:50:07;;;;;;;4.22;3.35;;;16.10;99.90;;;;;;5944258;23;20023;-78
2023/05/11 17:52:56;;;;;;;5.78;3.50;;;15.90;99.90;;;;;;4899584;29;36453;-81
2023/05/11 22:33:58;;;;;;;21.88;18.65;;;13.80;99.90;;;;;;5966679;23;20472;31
2023/05/11 22:42:37;;;;;;;;;;;13.70;99.90;;;;;;5995152;23;20035;31
2023/05/11 22:47:40;;;;;;;27.95;21.50;;;13.70;99.90;;;;;;5840931;23;20028;-82
2023/05/11 23:01:05;;;;;;;25.63;19.50;;;13.60;99.90;;;;;;5174444;23;20034;-84
2023/05/11 23:13:55;;;;;;;24.88;20.70;;;13.60;99.90;;;;;;5695060;23;20046;-85
2023/05/11 23:16:45;;;;;;;25.80;20.88;;;13.60;99.90;;;;;;4883829;29;37701;-84
2023/05/11 23:19:11;;;;;;;26.20;20.15;;;13.60;99.90;;;;;;5287315;23;38569;-82
2023/05/11 23:32:11;;;;;;;21.80;16.35;;;13.50;99.90;;;;;;5707029;23;20079;-82
2023/05/11 23:42:37;;;;;;;20.23;14.68;;;13.30;99.90;;;;;;4980865;23;20061;-84
2023/05/11 23:45:08;;;;;;;16.25;13.20;;;13.30;99.90;;;;;;5632807;23;36960;-83
2023/05/11 23:53:10;;;;;;;15.75;12.43;;;13.10;99.90;;;;;;5237635;23;20040;-83
